Time;durP1;ratioP1;P1;durP2;ratioP2;P2;SDS_P1;SDS_P2;PMS_P1;PMS_P2;Temp;Humidity;BMP_temperature;BMP_pressure;BME280_temperature;BME280_humidity;BME280_pressure;Samples;Min_cycle;Max_cycle;Signal;HPM_P1;HPM_P2
2022/12/31 00:01:13;;;;;;;41.20;25.58;;;;;;;3.46;100.00;94122.66;5090769;28;20149;-69
2022/12/31 00:03:40;;;;;;;43.47;27.17;;;;;;;3.48;100.00;94122.50;5090403;28;20094;-70
2022/12/31 00:06:15;;;;;;;46.33;27.48;;;;;;;3.48;100.00;94110.59;5090878;28;20051;-69
2022/12/31 00:08:42;;;;;;;45.13;27.55;;;;;;;3.43;100.00;94122.13;5090641;28;20048;-70
2022/12/31 00:11:12;;;;;;;63.13;31.15;;;;;;;3.40;100.00;94114.78;5090572;28;20503;-69
2022/12/31 00:13:39;;;;;;;100.55;48.60;;;;;;;3.43;100.00;94112.75;5090459;28;20097;-69
2022/12/31 00:16:11;;;;;;;83.43;39.92;;;;;;;3.46;100.00;94109.13;5090534;28;20101;-69
2022/12/31 00:18:37;;;;;;;58.55;35.25;;;;;;;3.49;100.00;94113.94;5090645;28;20052;-69
2022/12/31 00:21:06;;;;;;;40.08;25.00;;;;;;;3.48;100.00;94117.44;5090208;28;20051;-69
2022/12/31 00:23:32;;;;;;;36.35;23.10;;;;;;;3.52;100.00;94125.56;5090092;28;20089;-69
2022/12/31 00:26:03;;;;;;;29.15;19.95;;;;;;;3.55;100.00;94123.53;5090252;28;20097;-69
2022/12/31 00:28:31;;;;;;;36.17;22.52;;;;;;;3.52;100.00;94112.84;5090269;28;20094;-69
2022/12/31 00:31:03;;;;;;;39.75;23.42;;;;;;;3.63;100.00;94122.00;5089589;28;20489;-69
2022/12/31 00:33:30;;;;;;;47.20;28.90;;;;;;;3.73;100.00;94131.16;5090055;28;20564;-70
2022/12/31 00:36:07;;;;;;;50.13;29.40;;;;;;;3.77;100.00;94138.50;5090502;28;20040;-70
2022/12/31 00:38:34;;;;;;;55.63;32.25;;;;;;;3.79;100.00;94142.47;5090180;28;20117;-69
2022/12/31 00:41:01;;;;;;;66.65;38.60;;;;;;;3.78;100.00;94151.06;5089839;28;20488;-69
2022/12/31 00:43:28;;;;;;;68.72;38.78;;;;;;;3.82;100.00;94149.84;5089665;28;20047;-69
2022/12/31 00:45:56;;;;;;;67.13;40.22;;;;;;;3.85;100.00;94153.81;5089646;28;20136;-69
2022/12/31 00:48:23;;;;;;;63.80;38.45;;;;;;;3.90;100.00;94143.22;5090183;28;20094;-70
2022/12/31 00:50:50;;;;;;;73.15;42.03;;;;;;;3.82;100.00;94152.38;5089956;28;20040;-69
2022/12/31 00:53:16;;;;;;;69.30;39.08;;;;;;;3.73;100.00;94148.16;5089917;28;20101;-69
2022/12/31 00:55:43;;;;;;;47.20;30.85;;;;;;;3.48;100.00;94118.22;5089650;28;20052;-69
2022/12/31 00:58:10;;;;;;;52.17;32.45;;;;;;;3.64;100.00;94154.88;5089615;28;20533;-69
2022/12/31 01:00:37;;;;;;;54.53;33.38;;;;;;;3.71;100.00;94155.91;5089730;28;20044;-69
2022/12/31 01:03:06;;;;;;;54.83;33.03;;;;;;;3.73;100.00;94160.84;5089770;28;20105;-69
2022/12/31 01:05:35;;;;;;;57.00;35.03;;;;;;;3.78;100.00;94150.25;5089405;28;20044;-69
2022/12/31 01:08:02;;;;;;;56.85;33.53;;;;;;;3.84;100.00;94147.94;5089354;28;20059;-69
2022/12/31 01:13:13;;;;;;;48.13;30.50;;;;;;;3.99;100.00;94166.03;5089257;28;20131;-69
2022/12/31 01:15:40;;;;;;;47.30;29.85;;;;;;;4.01;100.00;94163.34;5089414;28;20048;-69
2022/12/31 01:18:09;;;;;;;56.03;33.65;;;;;;;3.99;100.00;94162.69;5089230;28;20048;-69
2022/12/31 01:20:36;;;;;;;45.40;29.77;;;;;;;3.98;100.00;94164.44;5076441;28;20052;-69
2022/12/31 01:23:03;;;;;;;45.42;28.83;;;;;;;3.77;100.00;94166.44;5089333;28;20446;-69
2022/12/31 01:25:30;;;;;;;41.65;27.13;;;;;;;3.66;100.00;94162.38;5089254;28;20044;-69
2022/12/31 01:27:56;;;;;;;40.15;24.52;;;;;;;3.52;100.00;94158.56;5089349;28;20044;-69
2022/12/31 01:30:23;;;;;;;48.00;28.25;;;;;;;3.44;100.00;94156.75;5089102;28;20066;-69
2022/12/31 01:32:50;;;;;;;46.83;30.80;;;;;;;3.43;100.00;94162.78;5076185;28;20040;-69
2022/12/31 01:35:18;;;;;;;52.90;32.22;;;;;;;3.42;100.00;94161.19;5073206;28;20045;-68
2022/12/31 01:37:45;;;;;;;54.70;34.10;;;;;;;3.44;100.00;94159.28;5070335;28;20036;-70
2022/12/31 01:40:12;;;;;;;59.95;34.83;;;;;;;3.48;100.00;94160.59;5081157;28;20048;-70
2022/12/31 01:42:39;;;;;;;48.83;32.05;;;;;;;3.57;100.00;94169.13;5088550;28;20040;-70
2022/12/31 01:45:11;;;;;;;61.50;38.05;;;;;;;3.55;100.00;94166.72;5074140;28;20098;-70
2022/12/31 01:47:41;;;;;;;63.20;39.13;;;;;;;3.38;100.00;94168.25;5068547;28;20102;-69
2022/12/31 01:50:15;;;;;;;72.70;39.67;;;;;;;3.20;100.00;94168.22;5068095;28;20041;-69
2022/12/31 01:52:46;;;;;;;86.72;47.47;;;;;;;3.13;100.00;94162.09;5068557;28;20079;-71
2022/12/31 01:55:20;;;;;;;81.80;46.30;;;;;;;2.91;100.00;94175.00;5070661;28;20048;-70
2022/12/31 01:57:51;;;;;;;87.47;47.72;;;;;;;2.90;100.00;94172.59;5072351;28;20496;-71
2022/12/31 02:00:18;;;;;;;71.57;40.88;;;;;;;2.82;100.00;94172.50;5072265;28;20041;-70
2022/12/31 02:02:45;;;;;;;70.03;40.72;;;;;;;2.88;100.00;94175.25;5072459;28;20067;-70
2022/12/31 02:05:19;;;;;;;71.45;41.65;;;;;;;2.99;100.00;94176.03;5072227;28;20393;-70
2022/12/31 02:07:48;;;;;;;65.03;39.63;;;;;;;3.12;100.00;94171.47;5072028;28;20076;-70
2022/12/31 02:10:15;;;;;;;69.38;42.13;;;;;;;3.20;100.00;94181.72;5071935;28;20044;-70
2022/12/31 02:12:42;;;;;;;66.03;41.28;;;;;;;3.31;100.00;94177.38;5072099;28;20517;-69
2022/12/31 02:15:09;;;;;;;66.75;41.03;;;;;;;3.31;100.00;94177.38;5072177;28;20110;-69
2022/12/31 02:17:45;;;;;;;66.25;42.33;;;;;;;3.31;100.00;94169.78;5071858;28;20553;-71
2022/12/31 02:20:31;;;;;;;69.97;43.95;;;;;;;3.29;100.00;94187.69;5071784;28;20044;-70
2022/12/31 02:23:33;;;;;;;85.50;49.42;;;;;;;3.27;100.00;94193.84;5071765;28;20046;-69
2022/12/31 02:26:31;;;;;;;79.85;50.00;;;;;;;3.19;100.00;94197.88;5069420;28;20037;-69
2022/12/31 02:29:56;;;;;;;85.40;48.55;;;;;;;2.97;100.00;94195.69;5071999;28;20048;-69
2022/12/31 02:32:43;;;;;;;87.32;46.90;;;;;;;2.92;100.00;94191.81;5071890;28;20048;-70
2022/12/31 02:35:14;;;;;;;87.97;50.10;;;;;;;3.01;100.00;94197.81;5071450;28;20170;-70
2022/12/31 02:37:44;;;;;;;83.00;47.50;;;;;;;2.94;100.00;94197.56;5071850;28;20066;-69
2022/12/31 02:40:17;;;;;;;83.88;49.95;;;;;;;2.96;100.00;94204.25;5071282;28;20074;-69
2022/12/31 02:42:43;;;;;;;84.65;49.42;;;;;;;2.86;100.00;94204.28;5071775;28;20036;-70
2022/12/31 02:45:14;;;;;;;79.30;46.83;;;;;;;2.73;100.00;94202.03;5071884;28;20106;-70
2022/12/31 02:47:57;;;;;;;90.70;57.50;;;;;;;2.56;100.00;94206.84;5071565;28;20102;-69
2022/12/31 02:50:35;;;;;;;75.20;46.15;;;;;;;2.41;100.00;94198.88;5073274;28;20413;-70
2022/12/31 02:53:15;;;;;;;86.43;51.85;;;;;;;2.42;100.00;94204.72;5072897;28;20090;-69
2022/12/31 02:55:47;;;;;;;84.32;50.95;;;;;;;2.41;100.00;94209.00;5071575;28;20044;-70
2022/12/31 02:58:21;;;;;;;81.40;48.70;;;;;;;2.43;100.00;94201.25;5071366;28;20206;-70
2022/12/31 03:03:40;;;;;;;81.22;49.72;;;;;;;2.28;100.00;94201.66;5071450;28;20122;-70
2022/12/31 03:06:08;;;;;;;88.40;54.88;;;;;;;2.27;100.00;94187.41;5070775;28;20045;-71
2022/12/31 03:09:11;;;;;;;83.40;52.15;;;;;;;2.35;100.00;94207.78;5071044;28;20094;-69
2022/12/31 03:14:03;;;;;;;84.10;51.08;;;;;;;2.40;100.00;94198.06;5070018;28;20045;-69
2022/12/31 03:16:29;;;;;;;84.25;49.03;;;;;;;2.46;100.00;94189.09;5071076;28;20040;-70
2022/12/31 03:27:10;;;;;;;80.53;48.03;;;;;;;2.34;100.00;94192.72;5070698;28;20055;-69
2022/12/31 03:29:36;;;;;;;78.68;46.55;;;;;;;2.36;100.00;94201.00;5070983;28;20044;-69
2022/12/31 03:32:03;;;;;;;78.70;46.42;;;;;;;2.34;100.00;94193.53;5070908;28;20048;-70
2022/12/31 03:34:31;;;;;;;80.93;46.67;;;;;;;2.06;100.00;94157.91;5070342;28;20086;-70
2022/12/31 03:36:58;;;;;;;72.25;43.80;;;;;;;2.27;100.00;94195.78;5070792;28;20045;-71
2022/12/31 03:39:27;;;;;;;68.18;42.53;;;;;;;2.25;100.00;94205.28;5070334;28;20048;-70
2022/12/31 03:41:54;;;;;;;63.72;38.92;;;;;;;2.25;100.00;94209.53;5070607;28;20157;-69
2022/12/31 03:44:23;;;;;;;57.85;34.50;;;;;;;2.13;100.00;94198.75;5070576;28;20040;-69
2022/12/31 03:46:50;;;;;;;54.53;32.67;;;;;;;2.19;100.00;94207.53;5070430;28;20105;-69
2022/12/31 03:49:17;;;;;;;46.90;30.98;;;;;;;2.15;100.00;94209.53;5070435;28;20142;-70
2022/12/31 03:51:45;;;;;;;42.83;25.70;;;;;;;2.08;100.00;94206.72;5072442;28;20558;-70
2022/12/31 03:54:11;;;;;;;51.13;29.52;;;;;;;2.02;100.00;94199.66;5070405;28;20478;-70
2022/12/31 03:56:38;;;;;;;43.95;26.85;;;;;;;1.98;100.00;94193.22;5070537;28;20098;-70
2022/12/31 03:59:05;;;;;;;38.85;23.15;;;;;;;1.99;100.00;94215.91;5070243;28;20090;-70
2022/12/31 04:01:32;;;;;;;36.88;22.67;;;;;;;1.95;100.00;94216.31;5069791;28;20409;-71
2022/12/31 04:03:58;;;;;;;43.33;23.70;;;;;;;1.88;100.00;94221.09;5070118;28;20052;-70
2022/12/31 04:06:25;;;;;;;44.88;28.25;;;;;;;1.81;100.00;94230.16;5069711;28;20045;-70
2022/12/31 04:08:53;;;;;;;39.10;25.02;;;;;;;1.77;100.00;94231.34;5069817;28;20433;-70
2022/12/31 04:11:20;;;;;;;40.08;24.73;;;;;;;1.73;100.00;94238.41;5069703;28;20087;-69
2022/12/31 04:13:46;;;;;;;40.55;23.83;;;;;;;1.70;100.00;94236.94;5070011;28;20538;-71
2022/12/31 04:16:13;;;;;;;55.42;31.58;;;;;;;1.66;100.00;94239.88;5069505;28;20036;-69
2022/12/31 04:18:40;;;;;;;61.13;36.70;;;;;;;1.44;100.00;94204.47;5069346;28;20082;-70
2022/12/31 04:21:07;;;;;;;66.75;38.78;;;;;;;1.66;100.00;94235.59;5069935;28;20311;-70
2022/12/31 04:23:33;;;;;;;70.00;37.95;;;;;;;1.70;100.00;94233.59;5069662;28;20097;-70
2022/12/31 04:26:01;;;;;;;65.50;38.35;;;;;;;1.70;100.00;94229.34;5069711;28;20041;-71
2022/12/31 04:28:28;;;;;;;76.45;43.60;;;;;;;1.70;100.00;94228.53;5069219;28;20052;-70
2022/12/31 04:30:55;;;;;;;64.32;40.50;;;;;;;1.68;100.00;94235.47;5069533;28;20114;-70
2022/12/31 04:33:21;;;;;;;61.10;37.80;;;;;;;1.66;100.00;94239.88;5069551;28;20096;-70
2022/12/31 04:35:48;;;;;;;70.40;40.42;;;;;;;1.70;100.00;94243.72;5069191;28;20105;-71
2022/12/31 04:38:15;;;;;;;75.63;43.03;;;;;;;1.67;100.00;94238.94;5069382;28;20816;-69
2022/12/31 04:43:23;;;;;;;66.68;38.08;;;;;;;1.82;100.00;94237.63;5068139;28;20044;-70
2022/12/31 04:45:50;;;;;;;64.78;37.85;;;;;;;1.86;100.00;94236.44;5069225;28;20451;-70
2022/12/31 04:48:17;;;;;;;65.32;39.38;;;;;;;1.95;100.00;94241.66;5069191;28;20090;-69
2022/12/31 04:50:46;;;;;;;73.03;42.00;;;;;;;2.05;100.00;94244.19;5071678;28;20093;-69
2022/12/31 04:53:12;;;;;;;67.32;41.53;;;;;;;2.09;100.00;94253.16;5068783;28;20090;-69
2022/12/31 04:55:41;;;;;;;53.35;34.63;;;;;;;2.02;100.00;94242.72;5068730;28;20512;-69
2022/12/31 04:58:07;;;;;;;63.83;41.40;;;;;;;2.14;100.00;94251.03;5069117;28;20117;-69
2022/12/31 05:00:35;;;;;;;59.95;38.30;;;;;;;2.20;100.00;94254.75;5069031;28;20094;-69
2022/12/31 05:03:02;;;;;;;64.82;40.95;;;;;;;2.25;100.00;94260.22;5069079;28;20454;-69
2022/12/31 05:05:29;;;;;;;59.30;38.13;;;;;;;2.29;100.00;94264.13;5068993;28;20054;-69
2022/12/31 05:07:55;;;;;;;67.47;40.47;;;;;;;2.26;100.00;94262.63;5068442;28;20098;-69
2022/12/31 05:10:23;;;;;;;63.03;39.70;;;;;;;2.31;100.00;94264.78;5068901;28;20381;-69
2022/12/31 05:12:49;;;;;;;57.78;37.08;;;;;;;2.35;100.00;94262.75;5068916;28;20407;-69
2022/12/31 05:15:16;;;;;;;56.33;37.15;;;;;;;2.35;100.00;94272.91;5068770;28;20045;-69
2022/12/31 05:17:44;;;;;;;59.38;39.70;;;;;;;2.35;100.00;94277.97;5068829;28;20090;-70
2022/12/31 05:20:11;;;;;;;81.53;47.10;;;;;;;2.30;100.00;94280.91;5068740;28;20768;-69
2022/12/31 05:22:38;;;;;;;68.88;41.95;;;;;;;2.33;100.00;94285.75;5068889;28;20040;-69
2022/12/31 05:25:05;;;;;;;63.40;41.30;;;;;;;2.35;100.00;94275.44;5068530;28;20102;-69
2022/12/31 05:27:32;;;;;;;71.68;41.58;;;;;;;2.31;100.00;94282.53;5068143;28;20056;-70
2022/12/31 05:29:59;;;;;;;58.63;35.90;;;;;;;2.29;100.00;94281.03;5067851;28;20041;-69
2022/12/31 05:32:26;;;;;;;47.72;32.53;;;;;;;2.28;100.00;94280.25;5069010;28;20040;-69
2022/12/31 05:34:54;;;;;;;54.60;33.80;;;;;;;2.32;100.00;94283.34;5068213;28;20048;-69
2022/12/31 05:37:21;;;;;;;51.72;33.35;;;;;;;2.32;100.00;94281.56;5068775;28;20040;-69
2022/12/31 05:39:48;;;;;;;53.38;32.67;;;;;;;2.32;100.00;94281.56;5068300;28;20500;-70
2022/12/31 05:42:14;;;;;;;59.78;37.67;;;;;;;2.30;100.00;94290.28;5068220;28;20048;-69
2022/12/31 05:44:41;;;;;;;57.63;35.67;;;;;;;2.30;100.00;94286.00;5068596;28;20451;-69
2022/12/31 05:47:08;;;;;;;61.95;34.03;;;;;;;2.29;100.00;94292.00;5068442;28;20106;-69
2022/12/31 05:49:34;;;;;;;56.38;33.33;;;;;;;2.29;100.00;94298.78;5068124;28;20040;-69
2022/12/31 05:52:03;;;;;;;51.92;32.58;;;;;;;2.28;100.00;94305.63;5070949;28;20052;-69
2022/12/31 05:54:29;;;;;;;58.00;32.67;;;;;;;2.24;100.00;94299.19;5068222;28;20056;-69
2022/12/31 05:56:56;;;;;;;58.40;35.63;;;;;;;2.16;100.00;94294.00;5068356;28;20049;-69
2022/12/31 05:59:23;;;;;;;50.58;31.80;;;;;;;2.12;100.00;94301.03;5068443;28;20041;-69
2022/12/31 06:01:50;;;;;;;50.33;32.35;;;;;;;2.09;100.00;94299.56;5068044;28;20041;-69
2022/12/31 06:04:17;;;;;;;51.83;31.65;;;;;;;2.03;100.00;94302.63;5068316;28;20048;-69
2022/12/31 06:06:43;;;;;;;56.17;33.22;;;;;;;2.03;100.00;94307.69;5068295;28;20037;-69
2022/12/31 06:09:11;;;;;;;61.38;37.10;;;;;;;1.94;100.00;94306.72;5067387;28;20496;-69
2022/12/31 06:11:38;;;;;;;74.95;43.40;;;;;;;1.89;100.00;94315.66;5068249;28;20094;-70
2022/12/31 06:14:05;;;;;;;70.97;41.42;;;;;;;1.81;100.00;94309.47;5068267;28;20465;-69
2022/12/31 06:16:31;;;;;;;66.15;40.53;;;;;;;1.82;100.00;94311.13;5067711;28;20040;-69
2022/12/31 06:18:58;;;;;;;75.45;45.03;;;;;;;1.79;100.00;94311.34;5067871;28;20041;-69
2022/12/31 06:21:25;;;;;;;68.88;42.13;;;;;;;1.75;100.00;94310.00;5068204;28;20100;-69
2022/12/31 06:23:52;;;;;;;69.78;47.58;;;;;;;1.72;100.00;94318.66;5067783;28;20082;-69
2022/12/31 06:26:20;;;;;;;83.03;54.58;;;;;;;1.69;100.00;94321.47;5067977;28;20040;-69
2022/12/31 06:28:47;;;;;;;82.18;50.97;;;;;;;1.74;100.00;94321.06;5067676;28;20098;-69
2022/12/31 06:31:15;;;;;;;77.65;48.22;;;;;;;1.75;100.00;94334.53;5067909;28;20050;-69
2022/12/31 06:33:41;;;;;;;85.60;54.35;;;;;;;1.72;100.00;94335.59;5067671;28;20491;-69
2022/12/31 06:36:12;;;;;;;94.05;59.28;;;;;;;1.75;100.00;94339.63;5067783;28;20048;-69
2022/12/31 06:38:41;;;;;;;86.13;52.75;;;;;;;1.76;100.00;94339.47;5068023;28;20041;-69
2022/12/31 06:41:10;;;;;;;103.18;60.78;;;;;;;1.78;100.00;94336.81;5070178;28;20040;-69
2022/12/31 06:43:39;;;;;;;97.00;59.53;;;;;;;1.81;100.00;94344.16;5071453;28;20059;-69
2022/12/31 06:46:07;;;;;;;103.40;59.38;;;;;;;1.78;100.00;94342.69;5071647;28;20044;-69
2022/12/31 06:48:35;;;;;;;84.43;52.85;;;;;;;1.83;100.00;94335.50;5071304;28;20056;-69
2022/12/31 06:51:05;;;;;;;76.63;47.50;;;;;;;1.90;100.00;94345.13;5073882;28;20041;-69
2022/12/31 06:53:31;;;;;;;84.95;50.58;;;;;;;1.66;100.00;94295.59;5070908;28;20544;-69
2022/12/31 06:56:04;;;;;;;93.32;56.30;;;;;;;2.01;100.00;94350.09;5071271;28;20052;-69
2022/12/31 06:58:31;;;;;;;90.13;54.30;;;;;;;2.07;100.00;94353.84;5071296;28;20447;-69
2022/12/31 07:01:12;;;;;;;89.40;55.25;;;;;;;2.11;100.00;94360.25;5071279;28;20045;-68
2022/12/31 07:03:44;;;;;;;81.63;53.78;;;;;;;2.21;100.00;94356.03;5070913;28;20086;-69
2022/12/31 07:06:16;;;;;;;86.45;53.60;;;;;;;2.28;100.00;94358.84;5071236;28;20086;-68
2022/12/31 07:08:50;;;;;;;77.00;47.88;;;;;;;2.34;100.00;94352.44;5070834;28;20040;-69
2022/12/31 07:11:22;;;;;;;76.78;45.55;;;;;;;2.41;100.00;94363.69;5070813;28;20044;-69
2022/12/31 07:14:11;;;;;;;79.65;47.80;;;;;;;2.44;100.00;94363.41;5070751;28;20045;-68
2022/12/31 07:16:56;;;;;;;80.35;48.50;;;;;;;2.55;100.00;94367.59;5071110;28;20102;-68
2022/12/31 07:19:35;;;;;;;114.72;71.82;;;;;;;2.58;100.00;94362.25;5070819;28;20170;-68
2022/12/31 07:22:03;;;;;;;147.65;91.38;;;;;;;2.69;100.00;94366.41;5070959;28;20554;-69
2022/12/31 07:24:30;;;;;;;117.95;69.70;;;;;;;2.80;100.00;94375.63;5070885;28;20036;-68
2022/12/31 07:27:12;;;;;;;145.73;86.05;;;;;;;2.90;100.00;94375.63;5070568;28;20044;-69
2022/12/31 07:29:58;;;;;;;137.73;83.03;;;;;;;3.01;100.00;94382.31;5070705;28;20133;-69
2022/12/31 07:32:37;;;;;;;137.50;85.75;;;;;;;3.09;100.00;94379.91;5070815;28;20044;-68
2022/12/31 07:35:15;;;;;;;119.93;75.22;;;;;;;3.14;100.00;94367.59;5070791;28;20049;-69
2022/12/31 07:37:49;;;;;;;107.07;63.83;;;;;;;3.30;100.00;94384.84;5070712;28;20090;-69
2022/12/31 07:40:23;;;;;;;91.38;58.50;;;;;;;3.29;100.00;94370.53;5070616;28;20059;-69
2022/12/31 07:43:05;;;;;;;104.13;62.53;;;;;;;3.40;100.00;94373.84;5070303;28;20044;-68
2022/12/31 07:45:38;;;;;;;97.38;59.92;;;;;;;3.47;100.00;94374.91;5070401;28;20508;-68
2022/12/31 07:48:21;;;;;;;89.38;54.10;;;;;;;3.58;100.00;94386.66;5070481;28;20056;-70
2022/12/31 07:50:49;;;;;;;114.32;66.78;;;;;;;3.64;100.00;94385.28;5070492;28;20048;-69
2022/12/31 07:53:16;;;;;;;101.65;62.65;;;;;;;3.69;100.00;94383.97;5068166;28;20037;-69
2022/12/31 07:55:42;;;;;;;93.38;56.28;;;;;;;3.77;100.00;94385.81;5070165;28;20048;-69
2022/12/31 07:58:18;;;;;;;80.10;48.60;;;;;;;3.86;100.00;94394.34;5069934;28;20044;-69
2022/12/31 08:00:45;;;;;;;82.18;49.25;;;;;;;3.95;100.00;94392.72;5070085;28;20481;-69
2022/12/31 08:03:31;;;;;;;73.40;44.75;;;;;;;3.88;100.00;94389.91;5069570;28;20055;-68
2022/12/31 08:06:10;;;;;;;74.65;44.72;;;;;;;3.92;100.00;94391.25;5069842;28;20044;-69
2022/12/31 08:08:47;;;;;;;72.82;44.60;;;;;;;3.99;100.00;94389.75;5070094;28;20135;-68
2022/12/31 08:11:24;;;;;;;65.85;39.38;;;;;;;3.99;100.00;94376.25;5069552;28;20044;-69
2022/12/31 08:13:54;;;;;;;75.20;43.42;;;;;;;4.22;100.00;94389.38;5069737;28;20048;-69
2022/12/31 08:16:22;;;;;;;73.78;42.63;;;;;;;4.31;100.00;94387.75;5069799;28;20068;-68
2022/12/31 08:18:50;;;;;;;63.58;37.50;;;;;;;4.40;100.00;94389.44;5069489;28;20090;-68
2022/12/31 08:21:25;;;;;;;129.55;69.00;;;;;;;3.87;100.00;94305.25;5069582;28;20550;-68
2022/12/31 08:24:04;;;;;;;76.78;42.53;;;;;;;4.40;100.00;94391.19;5069224;28;20040;-69
2022/12/31 08:26:42;;;;;;;64.65;37.15;;;;;;;4.36;100.00;94390.66;5069239;28;20049;-68
2022/12/31 08:29:26;;;;;;;67.30;35.80;;;;;;;4.09;100.00;94363.50;5069203;28;20056;-68
2022/12/31 08:32:01;;;;;;;70.20;38.13;;;;;;;4.27;100.00;94387.22;5069032;28;20044;-68
2022/12/31 08:34:35;;;;;;;68.85;37.28;;;;;;;4.35;100.00;94393.38;5069164;28;20098;-69
2022/12/31 08:37:08;;;;;;;71.22;38.33;;;;;;;4.51;100.00;94387.66;5083777;28;20044;-69
2022/12/31 08:39:52;;;;;;;52.28;29.92;;;;;;;4.61;100.00;94395.22;5087655;28;20124;-68
2022/12/31 08:42:25;;;;;;;52.88;28.35;;;;;;;4.67;100.00;94399.72;5090043;28;20052;-68
2022/12/31 08:45:03;;;;;;;52.85;30.02;;;;;;;4.67;100.00;94394.63;5089017;28;20125;-68
2022/12/31 08:47:41;;;;;;;57.70;31.42;;;;;;;4.75;100.00;94383.75;5090106;28;20044;-69
2022/12/31 08:50:15;;;;;;;56.33;33.50;;;;;;;5.00;100.00;94384.78;5089535;28;20048;-69
2022/12/31 08:52:42;;;;;;;56.17;31.55;;;;;;;5.16;100.00;94385.88;5089587;28;20097;-69
2022/12/31 08:55:14;;;;;;;53.03;31.65;;;;;;;5.32;100.00;94377.56;5089445;28;20493;-69
2022/12/31 08:57:48;;;;;;;50.15;31.58;;;;;;;5.50;100.00;94381.81;5089649;28;20550;-69
2022/12/31 09:00:19;;;;;;;49.53;27.58;;;;;;;5.56;100.00;94384.56;5089241;28;20105;-68
2022/12/31 09:03:07;;;;;;;47.85;26.48;;;;;;;5.66;100.00;94384.47;5089287;28;20093;-69
2022/12/31 09:05:51;;;;;;;47.60;26.10;;;;;;;5.91;100.00;94376.97;5089379;28;20548;-69
2022/12/31 09:08:28;;;;;;;45.00;27.07;;;;;;;5.94;100.00;94380.97;5089436;28;20079;-69
2022/12/31 09:10:59;;;;;;;49.75;25.75;;;;;;;6.03;100.00;94382.66;5089297;28;20051;-69
2022/12/31 09:13:37;;;;;;;41.42;25.25;;;;;;;6.17;100.00;94380.47;5089219;28;20044;-69
2022/12/31 09:16:13;;;;;;;38.08;24.23;;;;;;;6.26;100.00;94384.66;5089628;28;20048;-69
2022/12/31 09:18:42;;;;;;;35.88;23.98;;;;;;;6.40;100.00;94385.81;5089549;28;20051;-69
2022/12/31 09:21:12;;;;;;;36.53;24.27;;;;;;;6.51;100.00;94377.06;5089108;28;20098;-69
2022/12/31 09:23:39;;;;;;;37.72;23.80;;;;;;;6.72;100.00;94376.66;5088181;28;20044;-69
2022/12/31 09:26:14;;;;;;;42.65;25.77;;;;;;;6.80;100.00;94378.41;5089199;28;20097;-69
2022/12/31 09:28:50;;;;;;;86.82;41.65;;;;;;;6.94;100.00;94372.69;5088978;28;20048;-69
2022/12/31 09:31:31;;;;;;;44.10;26.27;;;;;;;7.02;100.00;94361.69;5089286;28;20048;-69
2022/12/31 09:34:03;;;;;;;42.92;27.08;;;;;;;7.22;100.00;94356.25;5070489;28;20059;-69
2022/12/31 09:36:36;;;;;;;97.63;53.67;;;;;;;7.28;100.00;94331.81;5089306;28;20048;-69
2022/12/31 09:39:08;;;;;;;45.70;28.10;;;;;;;7.62;100.00;94343.59;5089150;28;20052;-69
2022/12/31 09:42:01;;;;;;;139.23;73.22;;;;;;;7.80;100.00;94337.47;5089121;28;20040;-69
2022/12/31 09:45:04;;;;;;;45.53;28.60;;;;;;;7.98;100.00;94343.19;5086285;28;20044;-69
2022/12/31 09:48:05;;;;;;;42.67;25.90;;;;;;;8.25;100.00;94332.69;5069334;28;20044;-69
2022/12/31 09:50:52;;;;;;;38.70;25.35;;;;;;;8.41;100.00;94331.81;5088605;28;20130;-69
2022/12/31 09:53:40;;;;;;;41.15;26.55;;;;;;;8.46;100.00;94336.44;5089238;28;20412;-69
2022/12/31 09:56:16;;;;;;;37.50;24.65;;;;;;;8.45;100.00;94334.81;5089277;28;20140;-68
2022/12/31 09:58:50;;;;;;;38.17;23.50;;;;;;;8.45;100.00;94329.69;5088673;28;20040;-68
2022/12/31 10:01:29;;;;;;;34.08;22.88;;;;;;;8.54;100.00;94326.16;5087987;28;20040;-68
2022/12/31 10:04:16;;;;;;;36.65;23.63;;;;;;;8.63;100.00;94324.34;5086011;28;20538;-68
2022/12/31 10:06:52;;;;;;;33.55;21.90;;;;;;;8.66;100.00;94321.47;5085457;28;20052;-68
2022/12/31 10:09:28;;;;;;;;;;;;;;;8.85;100.00;94319.41;5084950;28;20052;-68
2022/12/31 10:12:06;;;;;;;35.50;22.63;;;;;;;8.95;100.00;94310.53;5087188;28;19928;-68
2022/12/31 10:14:52;;;;;;;33.08;19.50;;;;;;;9.03;100.00;94314.78;5086997;28;20048;-68
2022/12/31 10:17:34;;;;;;;30.75;19.10;;;;;;;8.97;100.00;94312.13;5087730;28;20452;-68
2022/12/31 10:20:15;;;;;;;30.85;19.30;;;;;;;9.06;100.00;94304.19;5091724;28;20500;-68
2022/12/31 10:22:54;;;;;;;30.80;18.42;;;;;;;9.14;100.00;94302.53;5080114;28;20051;-69
2022/12/31 10:25:39;;;;;;;32.35;18.35;;;;;;;9.23;100.00;94296.38;5091775;28;20044;-68
2022/12/31 10:28:18;;;;;;;38.47;19.80;;;;;;;9.33;100.00;94291.00;5091635;28;20044;-69
2022/12/31 10:30:57;;;;;;;38.72;19.05;;;;;;;9.48;100.00;94288.44;5091622;28;20055;-69
2022/12/31 10:33:37;;;;;;;36.80;18.63;;;;;;;9.59;100.00;94279.53;5091842;28;20040;-69
2022/12/31 10:36:11;;;;;;;40.95;19.83;;;;;;;9.74;100.00;94280.31;5090806;28;20074;-69
2022/12/31 10:38:47;;;;;;;35.20;18.55;;;;;;;9.78;100.00;94272.25;5075158;28;20044;-70
2022/12/31 10:41:49;;;;;;;29.08;15.30;;;;;;;9.87;100.00;94294.31;5071692;28;20098;-70
2022/12/31 10:44:48;;;;;;;31.23;16.65;;;;;;;9.92;100.00;94292.00;5088423;28;20052;-70
2022/12/31 10:47:35;;;;;;;33.17;15.77;;;;;;;9.85;100.00;94296.22;5092215;28;20054;-71
2022/12/31 10:50:32;;;;;;;32.75;14.73;;;;;;;9.99;100.00;94297.19;5070976;28;20087;-71
2022/12/31 10:53:27;;;;;;;20.67;9.32;;;;;;;9.97;100.00;94286.31;5089773;28;20044;-70
2022/12/31 10:56:19;;;;;;;15.95;8.18;;;;;;;10.09;100.00;94286.66;5089252;28;20056;-70
2022/12/31 10:59:10;;;;;;;18.80;7.22;;;;;;;10.19;100.00;94284.63;5092034;28;20040;-69
2022/12/31 11:01:48;;;;;;;19.20;8.98;;;;;;;10.29;100.00;94292.03;5091556;28;20048;-69
2022/12/31 11:04:45;;;;;;;31.83;13.10;;;;;;;10.43;100.00;94285.28;5091810;28;20066;-69
2022/12/31 11:07:50;;;;;;;45.10;15.60;;;;;;;10.52;100.00;94291.88;5091498;28;20180;-70
2022/12/31 11:10:58;;;;;;;38.35;15.43;;;;;;;10.43;100.00;94285.28;5092005;28;20044;-69
2022/12/31 11:13:46;;;;;;;34.47;15.73;;;;;;;10.54;100.00;94279.66;5091751;28;20488;-69
2022/12/31 11:16:26;;;;;;;35.78;15.27;;;;;;;10.66;100.00;94287.69;5091578;28;20048;-69
2022/12/31 11:19:01;;;;;;;38.22;17.73;;;;;;;10.74;100.00;94268.00;5091445;28;20055;-69
2022/12/31 11:21:40;;;;;;;32.15;15.05;;;;;;;10.89;100.00;94260.22;5091651;28;20130;-69
2022/12/31 11:24:24;;;;;;;37.65;15.43;;;;;;;11.07;100.00;94263.13;5091467;28;20416;-69
2022/12/31 11:27:05;;;;;;;31.77;11.18;;;;;;;10.83;100.00;94272.81;5091247;28;20491;-69
2022/12/31 11:29:54;;;;;;;23.35;9.95;;;;;;;10.88;100.00;94274.81;5091038;28;20624;-69
2022/12/31 11:32:40;;;;;;;16.77;8.43;;;;;;;10.91;100.00;94276.22;5091194;28;20052;-69
2022/12/31 11:35:25;;;;;;;18.65;8.40;;;;;;;11.10;100.00;94264.53;5091466;28;20094;-69
2022/12/31 11:38:02;;;;;;;26.77;10.40;;;;;;;11.22;100.00;94268.16;5091054;28;20551;-69
2022/12/31 11:40:40;;;;;;;17.77;8.85;;;;;;;11.43;100.00;94260.59;5091389;28;20073;-69
2022/12/31 11:43:20;;;;;;;11.43;7.00;;;;;;;11.40;100.00;94266.13;5091047;28;20511;-69
2022/12/31 11:46:03;;;;;;;18.05;7.93;;;;;;;11.51;100.00;94252.72;5090922;28;20044;-69
2022/12/31 11:48:36;;;;;;;12.70;6.38;;;;;;;11.55;100.00;94253.13;5091068;28;20056;-69
2022/12/31 11:51:37;;;;;;;15.00;6.10;;;;;;;11.49;100.00;94246.97;5090825;28;20116;-69
2022/12/31 11:54:28;;;;;;;12.00;5.57;;;;;;;11.47;100.00;94248.94;5090608;28;20048;-69
2022/12/31 11:57:05;;;;;;;8.20;5.32;;;;;;;11.42;100.00;94261.56;5090461;28;20040;-69
2022/12/31 11:59:31;;;;;;;8.63;5.43;;;;;;;11.48;100.00;94259.03;5090408;28;20048;-69
2022/12/31 12:02:04;;;;;;;8.32;5.22;;;;;;;11.62;100.00;94254.75;5090711;28;20044;-69
2022/12/31 12:04:31;;;;;;;10.82;5.55;;;;;;;11.63;100.00;94266.63;5090588;28;20500;-69